Time;durP1;ratioP1;P1;durP2;ratioP2;P2;SDS_P1;SDS_P2;PMS_P1;PMS_P2;Temp;Humidity;BMP_temperature;BMP_pressure;BME280_temperature;BME280_humidity;BME280_pressure;Samples;Min_cycle;Max_cycle;Signal;HPM_P1;HPM_P2
2021/10/22 05:40:32;;;;;;;;;;;;;;;5.26;66.93;99752.61;2169729;80;21583;-78
2021/10/22 05:43:33;;;;;;;10.25;2.40;;;;;;;5.25;66.92;99763.63;2181353;79;20216;-78
2021/10/22 05:46:35;;;;;;;7.45;2.50;;;;;;;5.22;66.91;99765.72;2157908;79;21025;-77
2021/10/22 05:49:36;;;;;;;8.20;2.33;;;;;;;5.17;66.91;99759.56;2170220;79;21022;-76
2021/10/22 05:52:38;;;;;;;9.85;2.55;;;;;;;5.17;66.96;99759.06;2172848;80;21144;-77
2021/10/22 05:55:40;;;;;;;11.22;2.52;;;;;;;5.19;66.99;99766.83;2172906;80;21048;-77
2021/10/22 05:58:42;;;;;;;9.30;2.92;;;;;;;5.29;67.01;99770.75;2168098;79;20959;-78
2021/10/22 06:01:44;;;;;;;9.13;2.47;;;;;;;5.53;67.04;99768.98;2166332;80;21071;-77
2021/10/22 06:04:45;;;;;;;8.95;2.67;;;;;;;5.81;66.87;99770.68;2175641;79;20982;-77
2021/10/22 06:07:47;;;;;;;12.50;2.52;;;;;;;6.15;66.63;99772.78;2157277;80;21028;-77
2021/10/22 06:10:49;;;;;;;11.03;3.37;;;;;;;6.43;66.36;99771.45;2171204;80;21057;-78
2021/10/22 06:13:50;;;;;;;10.13;3.00;;;;;;;6.76;66.08;99772.61;2167041;79;21117;-77
2021/10/22 06:16:52;;;;;;;11.70;2.92;;;;;;;7.03;65.70;99775.63;2161291;79;21036;-78
2021/10/22 06:19:56;;;;;;;11.38;3.12;;;;;;;7.35;65.29;99778.20;2175422;79;21769;-78
2021/10/22 06:26:13;;;;;;;11.33;2.60;;;;;;;7.95;64.20;99777.40;2174993;79;21088;-78
2021/10/22 06:29:15;;;;;;;10.38;2.90;;;;;;;8.21;63.87;99782.62;2177369;80;21449;-78
2021/10/22 06:32:17;;;;;;;13.93;4.08;;;;;;;8.43;63.07;99778.09;2166114;80;20991;-78
2021/10/22 06:35:18;;;;;;;10.95;3.35;;;;;;;8.59;62.91;99785.25;2163333;80;20986;-78
2021/10/22 06:38:21;;;;;;;12.33;3.02;;;;;;;8.85;62.39;99789.59;2174486;79;21049;-78
2021/10/22 06:41:23;;;;;;;13.98;2.90;;;;;;;8.98;61.50;99782.83;2171936;79;21544;-78
2021/10/22 06:44:27;;;;;;;6.17;2.58;;;;;;;9.18;61.31;99786.48;2166976;80;21076;-78
2021/10/22 06:47:28;;;;;;;12.05;2.62;;;;;;;9.40;60.89;99784.48;2163621;80;21054;-78
2021/10/22 06:50:30;;;;;;;8.90;2.62;;;;;;;9.53;60.62;99788.42;2173050;80;21033;-80
2021/10/22 06:53:32;;;;;;;12.40;3.08;;;;;;;9.79;59.98;99790.85;2177839;79;21033;-79
2021/10/22 06:56:33;;;;;;;9.28;2.50;;;;;;;10.04;60.01;99799.56;2170793;80;20986;-79
2021/10/22 06:59:35;;;;;;;11.88;3.20;;;;;;;10.41;59.09;99804.73;2174791;80;21272;-79
2021/10/22 07:02:51;;;;;;;10.98;2.83;;;;;;;10.57;58.72;99802.52;2177738;79;21499;-81
2021/10/22 07:08:58;;;;;;;11.25;2.60;;;;;;;10.72;57.98;99808.21;2131915;81;21046;-80
2021/10/22 07:12:00;;;;;;;11.48;2.90;;;;;;;10.77;57.33;99808.52;2166648;79;21009;-81
2021/10/22 07:15:05;;;;;;;11.38;3.08;;;;;;;10.86;57.04;99811.13;2183402;79;22282;-82
2021/10/22 07:18:05;;;;;;;10.08;3.10;;;;;;;10.74;56.21;99816.01;2170148;79;21372;-81
2021/10/22 07:21:07;;;;;;;10.53;2.55;;;;;;;10.70;56.72;99820.84;2127326;81;21104;-81
2021/10/22 07:24:17;;;;;;;13.38;3.30;;;;;;;10.76;56.21;99818.00;2124093;81;21066;-81
2021/10/22 07:27:12;;;;;;;11.70;2.80;;;;;;;10.76;55.35;99828.11;2109015;82;21006;-81
2021/10/22 07:30:15;;;;;;;10.08;2.90;;;;;;;10.85;55.82;99828.88;2169943;80;21064;-81
2021/10/22 07:33:16;;;;;;;8.23;2.27;;;;;;;10.91;53.90;99824.19;2167496;79;21075;-81
2021/10/22 07:36:18;;;;;;;10.10;2.47;;;;;;;10.77;53.72;99825.77;2182655;79;21037;-81
2021/10/22 07:39:22;;;;;;;13.48;2.95;;;;;;;10.77;53.72;99825.77;2179064;80;21417;-80
2021/10/22 07:42:26;;;;;;;11.28;3.27;;;;;;;10.88;53.96;99834.34;2101660;81;21212;-81
2021/10/22 07:45:28;;;;;;;11.15;3.10;;;;;;;10.99;53.68;99829.45;2166418;79;21567;-82
2021/10/22 07:48:30;;;;;;;14.07;4.40;;;;;;;11.24;54.05;99827.13;2125378;81;21045;-82
2021/10/22 08:00:31;;;;;;;14.07;5.08;;;;;;;11.62;51.97;99834.08;2173594;79;21920;-80
2021/10/22 08:03:33;;;;;;;7.97;2.95;;;;;;;11.84;51.10;99828.90;2180136;79;20974;-80
2021/10/22 08:06:37;;;;;;;15.15;3.15;;;;;;;11.93;51.73;99837.13;2171316;79;21045;-80
2021/10/22 08:09:43;;;;;;;8.23;2.30;;;;;;;12.16;50.47;99834.89;2165476;80;21041;-80
2021/10/22 08:12:46;;;;;;;12.58;3.05;;;;;;;12.36;50.87;99834.67;2165467;80;21029;-80
2021/10/22 08:15:47;;;;;;;6.95;2.60;;;;;;;12.65;50.42;99836.97;2165063;80;21048;-80
2021/10/22 08:18:49;;;;;;;13.90;3.17;;;;;;;12.83;50.24;99830.70;2178286;80;21070;-79
2021/10/22 08:25:15;;;;;;;14.35;3.50;;;;;;;12.77;49.61;99826.95;2165207;79;21062;-80
2021/10/22 08:28:18;;;;;;;13.13;2.70;;;;;;;12.31;49.35;99833.89;2177791;79;21089;-80
2021/10/22 08:31:20;;;;;;;7.05;3.15;;;;;;;11.75;48.66;99838.79;2166122;79;20975;-81
2021/10/22 08:34:22;;;;;;;14.23;2.60;;;;;;;11.31;49.89;99841.33;2089973;82;21144;-80
2021/10/22 08:37:24;;;;;;;8.60;2.75;;;;;;;11.17;49.56;99837.62;2154537;81;21446;-81
2021/10/22 08:40:26;;;;;;;8.38;2.40;;;;;;;11.18;49.56;99840.11;2090962;82;21111;-80
2021/10/22 08:43:49;;;;;;;13.03;3.25;;;;;;;11.39;50.08;99835.45;2101203;82;21074;-81
2021/10/22 08:46:53;;;;;;;9.68;2.90;;;;;;;11.59;49.90;99840.27;2106372;81;21501;-77
2021/10/22 08:49:59;;;;;;;5.60;2.30;;;;;;;11.86;49.05;99840.22;2100553;81;21034;-76
2021/10/22 08:53:00;;;;;;;11.65;2.72;;;;;;;12.06;49.66;99839.17;2085923;81;22169;-80
2021/10/22 08:56:05;;;;;;;9.03;2.10;;;;;;;12.49;49.48;99829.50;2098704;81;21018;-78
2021/10/22 08:59:06;;;;;;;11.78;2.55;;;;;;;12.90;48.72;99833.46;2082277;83;21019;-80
2021/10/22 09:02:21;;;;;;;10.63;2.83;;;;;;;12.99;47.50;99830.98;2107728;81;22850;-77
2021/10/22 09:05:26;;;;;;;8.53;2.62;;;;;;;12.93;47.26;99826.42;2105222;82;21097;-81
2021/10/22 09:08:37;;;;;;;12.50;3.20;;;;;;;12.85;47.10;99827.36;2100463;82;21071;-80
2021/10/22 09:11:44;;;;;;;8.23;2.60;;;;;;;12.92;47.32;99830.93;2120499;82;21603;-80
2021/10/22 09:15:05;;;;;;;12.13;3.05;;;;;;;12.93;46.47;99820.58;2136034;81;21085;-75
2021/10/22 09:18:23;;;;;;;9.03;2.35;;;;;;;13.11;47.38;99810.81;2133222;81;21045;-80
2021/10/22 09:21:28;;;;;;;6.95;2.25;;;;;;;13.28;45.49;99819.40;2134402;81;21041;-77
2021/10/22 09:24:32;;;;;;;9.45;2.37;;;;;;;13.37;46.28;99808.09;2132704;81;21075;-82
2021/10/22 09:27:45;;;;;;;9.63;3.30;;;;;;;13.26;45.22;99805.95;2131032;81;22378;-80
2021/10/22 09:30:49;;;;;;;17.02;4.55;;;;;;;13.35;46.72;99810.97;2108328;81;21572;-78
2021/10/22 09:33:59;;;;;;;27.40;10.65;;;;;;;13.59;46.43;99803.05;2121220;81;21111;-81
2021/10/22 09:37:03;;;;;;;7.70;2.62;;;;;;;13.78;45.73;99806.05;2137140;81;21046;-78
2021/10/22 09:40:07;;;;;;;9.00;1.95;;;;;;;13.75;44.79;99796.59;2122699;81;21555;-80
2021/10/22 09:43:15;;;;;;;8.08;2.20;;;;;;;13.56;44.56;99805.28;2128140;81;21078;-79
2021/10/22 09:46:21;;;;;;;6.47;1.82;;;;;;;13.45;43.16;99787.45;2120584;81;21025;-78
2021/10/22 09:49:27;;;;;;;15.28;2.30;;;;;;;13.61;44.80;99786.35;2106939;82;21449;-82
2021/10/22 09:52:30;;;;;;;9.75;2.47;;;;;;;13.73;43.77;99783.14;2130661;81;21016;-81
2021/10/22 09:55:31;;;;;;;11.53;2.33;;;;;;;13.68;44.12;99781.91;2125534;81;21036;-79
2021/10/22 09:58:35;;;;;;;5.40;2.00;;;;;;;13.68;42.04;99773.91;2121376;81;21046;-80
2021/10/22 10:01:40;;;;;;;9.90;2.40;;;;;;;13.61;43.01;99770.88;2128970;81;20985;-77
2021/10/22 10:04:41;;;;;;;6.15;2.25;;;;;;;13.63;42.30;99766.17;2113735;81;21053;-77
2021/10/22 10:07:46;;;;;;;7.58;1.82;;;;;;;13.58;41.75;99760.60;2137206;81;20994;-80
2021/10/22 10:10:47;;;;;;;7.62;2.45;;;;;;;13.50;41.77;99762.08;2135284;81;21099;-78
2021/10/22 10:13:49;;;;;;;5.92;2.25;;;;;;;13.23;41.82;99757.83;2131076;81;21043;-80
2021/10/22 10:16:51;;;;;;;5.50;1.62;;;;;;;13.06;42.68;99761.28;2138309;81;21075;-81
2021/10/22 10:19:54;;;;;;;6.62;2.00;;;;;;;13.10;42.49;99755.08;2114154;81;21062;-77
2021/10/22 10:22:57;;;;;;;7.28;1.75;;;;;;;13.31;43.11;99755.06;2145461;81;20996;-77
2021/10/22 10:26:25;;;;;;;9.78;2.10;;;;;;;13.64;41.02;99756.63;2115085;81;21016;-81
2021/10/22 10:29:31;;;;;;;7.90;3.10;;;;;;;13.48;40.38;99751.59;2126552;81;21531;-81
2021/10/22 10:32:35;;;;;;;6.30;2.20;;;;;;;13.30;41.86;99751.28;2138477;81;21141;-80
2021/10/22 10:35:40;;;;;;;10.43;2.70;;;;;;;13.33;41.50;99748.22;2116670;81;20993;-78
2021/10/22 10:38:46;;;;;;;14.13;2.87;;;;;;;13.12;42.09;99745.03;2153350;81;21080;-78
2021/10/22 10:41:48;;;;;;;11.78;2.20;;;;;;;13.19;41.84;99730.77;2136627;81;21012;-78
2021/10/22 10:44:51;;;;;;;11.65;3.12;;;;;;;13.26;42.39;99740.16;2139109;81;21001;-79
2021/10/22 10:47:58;;;;;;;17.05;3.40;;;;;;;13.26;42.31;99741.49;2129475;81;21026;-81
2021/10/22 10:51:04;;;;;;;10.80;2.77;;;;;;;13.20;41.52;99745.72;2116070;82;21024;-81
2021/10/22 10:54:06;;;;;;;12.35;3.33;;;;;;;13.09;42.61;99741.42;2135498;81;21461;-79
2021/10/22 10:57:24;;;;;;;18.75;5.55;;;;;;;13.39;42.06;99732.79;2130273;81;20958;-79
2021/10/22 11:00:34;;;;;;;19.62;5.80;;;;;;;13.51;42.42;99733.06;2132420;81;21053;-79
2021/10/22 11:03:47;;;;;;;12.50;3.60;;;;;;;13.55;42.53;99729.01;2117014;82;21041;-79
2021/10/22 11:06:52;;;;;;;13.45;3.45;;;;;;;13.49;42.39;99729.77;2138086;81;20976;-78
2021/10/22 11:09:53;;;;;;;8.35;2.42;;;;;;;13.36;42.39;99725.19;2114445;81;21568;-76
2021/10/22 11:13:16;;;;;;;8.80;2.45;;;;;;;13.14;42.44;99731.03;2129355;81;21047;-75
2021/10/22 11:16:32;;;;;;;9.03;2.08;;;;;;;12.91;42.41;99726.73;2108857;81;20984;-74
2021/10/22 11:19:38;;;;;;;7.90;2.47;;;;;;;12.70;42.86;99722.77;2136032;81;21025;-78
2021/10/22 11:22:41;;;;;;;5.33;2.00;;;;;;;12.75;43.27;99721.67;2143177;80;22475;-77
2021/10/22 11:25:43;;;;;;;7.05;1.90;;;;;;;12.85;43.25;99711.53;2112745;81;21033;-75
2021/10/22 11:28:45;;;;;;;9.65;3.20;;;;;;;12.74;43.27;99720.03;2123797;81;21032;-78
2021/10/22 11:31:53;;;;;;;8.20;2.45;;;;;;;12.91;43.66;99709.95;2146192;81;21053;-77
2021/10/22 11:35:04;;;;;;;10.13;2.70;;;;;;;12.87;43.04;99704.19;2134376;81;20961;-78
2021/10/22 11:38:06;;;;;;;4.53;2.10;;;;;;;12.67;43.60;99714.66;2139201;81;21000;-76
2021/10/22 11:41:13;;;;;;;11.53;2.75;;;;;;;12.30;42.94;99713.02;2126757;81;21045;-79
2021/10/22 11:44:15;;;;;;;6.30;2.17;;;;;;;12.07;43.31;99711.33;2138723;81;21029;-76
2021/10/22 11:47:22;;;;;;;7.87;2.95;;;;;;;11.86;43.24;99709.95;2135328;81;21530;-77
2021/10/22 11:50:32;;;;;;;9.45;2.83;;;;;;;11.69;43.91;99712.46;2128332;81;21506;-77
2021/10/22 11:53:33;;;;;;;9.33;2.45;;;;;;;11.63;43.74;99708.70;2144841;81;21051;-77
2021/10/22 11:56:36;;;;;;;7.33;2.60;;;;;;;11.79;44.21;99710.33;2129802;81;21024;-78
2021/10/22 11:59:51;;;;;;;8.58;2.12;;;;;;;11.99;44.66;99704.78;2113443;81;21102;-76
2021/10/22 12:02:53;;;;;;;8.00;2.17;;;;;;;12.36;44.13;99691.01;2112324;81;21054;-76
2021/10/22 12:05:58;;;;;;;6.47;2.00;;;;;;;12.48;43.56;99697.47;2116765;81;20972;-79
2021/10/22 12:08:59;;;;;;;5.35;1.72;;;;;;;12.59;42.80;99696.15;2125737;81;21555;-76
2021/10/22 12:12:14;;;;;;;5.22;1.90;;;;;;;12.37;42.62;99697.97;2137663;81;20976;-77
2021/10/22 12:15:29;;;;;;;6.40;1.98;;;;;;;12.06;42.84;99710.20;2139214;81;21029;-79
2021/10/22 12:18:31;;;;;;;8.28;2.00;;;;;;;11.82;43.29;99708.62;2131139;81;21476;-77
2021/10/22 12:21:35;;;;;;;6.87;2.72;;;;;;;11.71;43.75;99706.44;2135923;81;21059;-74
2021/10/22 12:24:49;;;;;;;7.87;2.30;;;;;;;11.71;44.18;99705.10;2128339;81;20991;-75
2021/10/22 12:27:59;;;;;;;5.87;2.00;;;;;;;11.69;44.34;99707.96;2109937;81;21578;-77
2021/10/22 12:31:11;;;;;;;4.55;2.10;;;;;;;11.63;44.00;99701.55;2130172;81;21144;-76
2021/10/22 12:34:23;;;;;;;9.00;2.67;;;;;;;11.51;44.10;99696.35;2136117;81;21496;-78
2021/10/22 12:37:37;;;;;;;6.60;2.42;;;;;;;11.45;44.05;99693.92;2128067;81;20994;-77
2021/10/22 12:40:49;;;;;;;7.62;2.30;;;;;;;11.38;44.39;99686.89;2132642;80;21540;-77
2021/10/22 12:44:11;;;;;;;7.30;2.20;;;;;;;11.43;44.69;99687.14;2118570;81;21569;-80
2021/10/22 12:47:12;;;;;;;7.40;1.85;;;;;;;11.43;44.69;99687.14;2122545;81;21095;-78
2021/10/22 12:50:18;;;;;;;7.35;2.17;;;;;;;11.54;43.70;99697.31;2120675;81;20987;-77
2021/10/22 12:53:30;;;;;;;7.22;2.02;;;;;;;11.41;43.48;99695.81;2120700;81;21044;-80
2021/10/22 12:56:34;;;;;;;6.40;2.10;;;;;;;11.28;43.73;99686.32;2103933;81;21045;-79
2021/10/22 12:59:35;;;;;;;4.75;2.47;;;;;;;11.20;44.26;99685.38;2127075;81;21028;-77
2021/10/22 13:02:37;;;;;;;5.30;1.80;;;;;;;11.07;44.49;99660.48;2129960;81;21066;-77
2021/10/22 13:05:40;;;;;;;5.50;1.82;;;;;;;11.22;44.51;99681.23;2110638;81;21078;-78
2021/10/22 13:08:47;;;;;;;4.92;1.90;;;;;;;11.37;44.77;99676.74;2135270;81;21484;-78
2021/10/22 13:21:34;;;;;;;11.25;2.62;;;;;;;11.31;43.85;99653.57;2129550;81;23225;-79
2021/10/22 13:24:38;;;;;;;5.25;1.95;;;;;;;11.25;44.09;99669.42;2123905;81;21599;-79
2021/10/22 13:27:39;;;;;;;8.20;2.55;;;;;;;11.16;44.52;99648.77;2105673;81;21610;-80
2021/10/22 13:30:43;;;;;;;7.90;1.92;;;;;;;11.16;44.50;99678.80;2147399;81;21036;-74
2021/10/22 13:33:44;;;;;;;5.72;2.30;;;;;;;11.12;44.08;99668.70;2119881;81;21013;-76
2021/10/22 13:36:46;;;;;;;7.05;2.42;;;;;;;11.12;44.41;99664.25;2136808;81;20977;-79
2021/10/22 13:39:48;;;;;;;3.95;2.17;;;;;;;11.15;44.44;99660.38;2127898;81;21057;-76
2021/10/22 13:42:50;;;;;;;4.33;1.95;;;;;;;11.14;44.39;99659.55;2123496;81;20998;-77
2021/10/22 13:45:51;;;;;;;6.40;1.80;;;;;;;11.16;44.42;99651.42;2118343;81;21008;-78
2021/10/22 13:48:53;;;;;;;5.78;2.00;;;;;;;11.17;44.38;99651.23;2142365;81;21581;-75
2021/10/22 13:51:55;;;;;;;7.62;1.70;;;;;;;11.15;44.26;99645.30;2139519;81;21041;-80
2021/10/22 13:54:57;;;;;;;4.62;1.92;;;;;;;11.09;43.79;99645.17;2138771;81;21037;-79
2021/10/22 13:57:59;;;;;;;10.03;1.80;;;;;;;11.02;43.86;99646.92;2120288;81;21130;-76
2021/10/22 14:01:00;;;;;;;5.95;1.87;;;;;;;10.95;43.79;99638.84;2118965;82;20961;-75
2021/10/22 14:04:02;;;;;;;4.15;1.70;;;;;;;10.88;43.58;99637.42;2137295;81;21053;-77
2021/10/22 14:07:04;;;;;;;6.67;2.30;;;;;;;10.82;43.47;99643.96;2137853;81;20969;-80
2021/10/22 14:10:08;;;;;;;8.10;2.50;;;;;;;10.77;43.52;99641.33;2128651;81;21049;-79
2021/10/22 14:29:32;;;;;;;7.47;1.82;;;;;;;10.53;42.76;99649.48;2153976;81;21017;-80
2021/10/22 14:32:36;;;;;;;7.08;1.70;;;;;;;10.48;43.22;99643.91;2129514;81;20968;-83
2021/10/22 14:35:38;;;;;;;8.33;1.87;;;;;;;10.45;43.16;99647.73;2118419;81;21003;-83
2021/10/22 14:38:39;;;;;;;4.35;2.00;;;;;;;10.43;43.35;99643.10;2121126;80;21104;-79
2021/10/22 14:41:41;;;;;;;4.60;2.45;;;;;;;10.42;43.52;99652.07;2127996;81;21002;-81
2021/10/22 14:44:43;;;;;;;6.65;2.50;;;;;;;10.39;43.37;99652.43;2122883;81;21042;-82
2021/10/22 14:47:57;;;;;;;4.95;2.27;;;;;;;10.37;43.52;99632.39;2130234;81;20997;-79
2021/10/22 14:50:51;;;;;;;5.65;1.98;;;;;;;10.36;43.57;99638.20;2124265;81;21820;-80
2021/10/22 14:53:58;;;;;;;4.53;2.15;;;;;;;10.36;43.54;99640.85;2133522;81;21084;-78
2021/10/22 14:57:00;;;;;;;5.70;2.00;;;;;;;10.35;43.60;99635.20;2137520;81;21104;-79
2021/10/22 15:00:04;;;;;;;5.10;2.40;;;;;;;10.34;43.41;99633.56;2105682;81;20990;-80
2021/10/22 15:03:07;;;;;;;6.90;2.80;;;;;;;10.35;43.59;99639.69;2129502;81;21009;-81
2021/10/22 15:06:09;;;;;;;8.80;3.85;;;;;;;10.35;43.69;99639.69;2136758;81;21014;-79
2021/10/22 15:09:11;;;;;;;6.95;3.05;;;;;;;10.33;43.79;99629.24;2137801;81;21064;-74
2021/10/22 15:12:12;;;;;;;7.78;2.67;;;;;;;10.28;44.11;99619.70;2139123;81;21507;-78
2021/10/22 15:15:15;;;;;;;9.65;3.20;;;;;;;10.25;43.98;99622.16;2135442;81;21067;-81
2021/10/22 15:18:17;;;;;;;5.50;2.27;;;;;;;10.24;44.04;99628.95;2153881;81;21036;-78
2021/10/22 15:21:20;;;;;;;8.98;2.50;;;;;;;10.23;44.17;99630.78;2130943;81;20993;-77
2021/10/22 15:24:22;;;;;;;12.73;3.60;;;;;;;10.22;44.03;99634.45;2127393;81;21008;-81
2021/10/22 15:27:23;;;;;;;6.90;2.83;;;;;;;10.20;44.23;99644.39;2127029;81;21092;-82
2021/10/22 15:30:26;;;;;;;3.90;2.00;;;;;;;10.19;44.31;99642.76;2142867;81;21527;-79
2021/10/22 15:33:27;;;;;;;9.58;3.17;;;;;;;10.17;44.19;99648.73;2133606;81;21024;-80
2021/10/22 15:36:29;;;;;;;9.90;3.00;;;;;;;10.15;44.24;99642.77;2108079;81;21521;-81
2021/10/22 15:39:31;;;;;;;8.55;3.83;;;;;;;10.10;44.34;99638.48;2136308;81;20994;-79
2021/10/22 15:42:33;;;;;;;6.50;2.90;;;;;;;10.06;44.38;99646.48;2130927;81;20985;-79
2021/10/22 15:45:35;;;;;;;12.18;2.65;;;;;;;10.03;44.67;99640.20;2128925;81;21441;-79
2021/10/22 15:48:37;;;;;;;7.22;3.00;;;;;;;10.00;44.46;99641.88;2144728;81;21028;-79
2021/10/22 15:51:40;;;;;;;7.12;2.33;;;;;;;10.01;44.52;99650.14;2146416;81;21514;-82
2021/10/22 15:54:41;;;;;;;10.55;3.00;;;;;;;9.98;44.59;99654.47;2143239;81;21040;-79
2021/10/22 15:57:43;;;;;;;8.90;2.87;;;;;;;9.91;44.78;99642.90;2144368;81;21012;-80
2021/10/22 16:00:45;;;;;;;8.00;3.37;;;;;;;9.88;44.86;99644.92;2136916;81;21532;-81
2021/10/22 16:03:47;;;;;;;13.18;3.75;;;;;;;9.85;45.01;99659.84;2123765;81;21006;-80
2021/10/22 16:13:21;;;;;;;11.57;4.40;;;;;;;9.68;45.38;99674.14;2133988;81;21004;-79
2021/10/22 16:16:29;;;;;;;8.78;3.80;;;;;;;9.65;45.41;99665.21;2140961;81;21069;-79
2021/10/22 16:19:28;;;;;;;10.85;3.42;;;;;;;9.67;45.62;99668.52;2125397;80;21004;-79
2021/10/22 16:22:30;;;;;;;9.20;3.00;;;;;;;9.67;45.73;99669.03;2139651;81;21000;-79
2021/10/22 16:25:32;;;;;;;10.80;3.35;;;;;;;9.64;45.83;99669.69;2121783;81;20985;-77
2021/10/22 16:28:34;;;;;;;10.85;3.20;;;;;;;9.64;45.91;99678.14;2124738;81;21695;-83
2021/10/22 16:31:37;;;;;;;8.70;3.50;;;;;;;9.62;45.91;99672.18;2106208;81;21097;-80
2021/10/22 16:38:02;;;;;;;10.18;4.00;;;;;;;9.64;45.94;99675.49;2113894;81;21026;-81
2021/10/22 16:41:05;;;;;;;10.95;4.40;;;;;;;9.64;46.12;99670.20;2140816;81;21002;-79
2021/10/22 16:44:07;;;;;;;8.50;3.67;;;;;;;9.59;46.23;99683.12;2126987;81;20996;-82
2021/10/22 16:47:09;;;;;;;13.60;4.47;;;;;;;9.54;46.12;99685.45;2146958;81;21081;-80
2021/10/22 16:50:11;;;;;;;15.93;4.50;;;;;;;9.51;46.27;99687.12;2123726;81;21021;-78
2021/10/22 16:53:13;;;;;;;6.25;2.85;;;;;;;9.49;46.24;99688.63;2126531;81;21029;-78
2021/10/22 16:56:16;;;;;;;9.68;3.52;;;;;;;9.50;46.24;99685.48;2126157;81;21521;-77
2021/10/22 16:59:19;;;;;;;7.90;3.35;;;;;;;9.51;46.33;99688.44;2118950;81;22361;-80
2021/10/22 17:02:21;;;;;;;12.20;3.10;;;;;;;9.50;46.42;99695.56;2144363;81;21538;-77
2021/10/22 17:05:25;;;;;;;5.47;2.77;;;;;;;9.49;46.44;99694.40;2127036;81;21059;-80
2021/10/22 17:08:26;;;;;;;11.97;4.15;;;;;;;9.47;46.50;99698.55;2146830;81;21544;-77
2021/10/22 17:11:28;;;;;;;12.60;4.08;;;;;;;9.47;46.55;99700.38;2126225;81;21018;-78
2021/10/22 17:14:31;;;;;;;12.05;3.52;;;;;;;9.46;46.55;99704.01;2119959;82;21510;-78
2021/10/22 17:17:33;;;;;;;10.35;3.72;;;;;;;9.44;46.53;99706.84;2109595;81;21101;-78
2021/10/22 17:20:35;;;;;;;8.40;3.00;;;;;;;9.43;46.56;99700.72;2147020;81;21519;-77
2021/10/22 17:23:37;;;;;;;8.85;3.52;;;;;;;9.43;46.47;99707.34;2124512;81;21022;-79
2021/10/22 17:26:40;;;;;;;9.30;3.08;;;;;;;9.43;46.65;99706.02;2142260;81;21032;-77
2021/10/22 17:29:42;;;;;;;13.68;3.92;;;;;;;9.42;46.58;99699.05;2106804;81;21036;-78
2021/10/22 17:32:46;;;;;;;9.50;3.22;;;;;;;9.42;46.75;99712.80;2137254;81;21025;-79
2021/10/22 17:35:47;;;;;;;7.67;3.20;;;;;;;9.38;46.81;99707.02;2112646;81;21109;-79
2021/10/22 17:38:49;;;;;;;9.78;3.33;;;;;;;9.37;46.74;99705.34;2137747;81;21063;-79
2021/10/22 17:41:51;;;;;;;11.43;3.72;;;;;;;9.41;46.83;99709.33;2139025;81;21503;-79
2021/10/22 17:44:53;;;;;;;10.45;3.10;;;;;;;9.42;46.85;99706.17;2133349;81;21099;-77
2021/10/22 17:47:55;;;;;;;12.10;2.80;;;;;;;9.40;46.98;99710.34;2126586;82;21010;-78
2021/10/22 17:50:58;;;;;;;12.50;2.77;;;;;;;9.43;46.89;99711.80;2107172;81;21053;-75
2021/10/22 17:54:00;;;;;;;9.60;3.02;;;;;;;9.45;47.07;99707.66;2111828;81;21074;-78
2021/10/22 17:57:03;;;;;;;7.25;2.87;;;;;;;9.47;47.04;99703.03;2144873;81;21024;-79
2021/10/22 18:00:07;;;;;;;8.98;3.58;;;;;;;9.46;47.14;99704.86;2115850;81;21041;-80
2021/10/22 18:03:10;;;;;;;11.97;3.37;;;;;;;9.45;47.20;99694.42;2115048;81;21027;-79
2021/10/22 18:06:12;;;;;;;13.95;3.70;;;;;;;9.43;47.04;99691.45;2117950;81;21023;-78
2021/10/22 18:09:16;;;;;;;9.95;3.25;;;;;;;9.44;47.29;99698.90;2137917;81;21529;-76
2021/10/22 18:12:18;;;;;;;12.40;4.37;;;;;;;9.41;47.31;99700.56;2131370;81;21035;-77
2021/10/22 18:15:20;;;;;;;9.08;3.87;;;;;;;9.42;47.31;99702.20;2132785;81;21035;-78
2021/10/22 18:18:22;;;;;;;10.98;4.90;;;;;;;9.41;47.44;99700.56;2147613;81;21012;-79
2021/10/22 18:21:26;;;;;;;15.10;3.47;;;;;;;9.41;47.29;99711.98;2126043;81;21030;-77
2021/10/22 18:24:29;;;;;;;10.95;3.35;;;;;;;9.44;47.39;99710.81;2125936;81;21120;-77
2021/10/22 18:27:31;;;;;;;8.75;3.72;;;;;;;9.45;47.43;99714.28;2146527;81;21047;-78
2021/10/22 18:30:35;;;;;;;12.53;3.83;;;;;;;9.48;47.49;99716.59;2127609;81;21064;-77
2021/10/22 18:33:39;;;;;;;9.18;3.50;;;;;;;9.50;47.51;99722.55;2126717;80;20997;-78
2021/10/22 18:36:44;;;;;;;10.78;3.52;;;;;;;9.50;47.63;99722.55;2143408;81;21287;-77
2021/10/22 18:39:45;;;;;;;9.00;2.85;;;;;;;9.50;47.53;99726.02;2119967;81;21084;-76
2021/10/22 18:42:47;;;;;;;8.23;3.33;;;;;;;9.50;47.44;99726.53;2142435;81;21049;-80
2021/10/22 18:45:50;;;;;;;11.03;3.20;;;;;;;9.51;47.75;99734.79;2135510;81;21093;-79
2021/10/22 18:49:08;;;;;;;7.10;3.27;;;;;;;9.51;47.80;99725.52;2136261;81;21110;-78
2021/10/22 18:52:13;;;;;;;4.37;2.37;;;;;;;9.54;47.93;99739.75;2121221;81;21033;-78
2021/10/22 18:55:15;;;;;;;9.15;2.95;;;;;;;9.56;48.10;99758.95;2126695;82;21123;-78
2021/10/22 18:58:17;;;;;;;5.12;2.25;;;;;;;9.56;48.27;99751.83;2121718;81;21170;-79
2021/10/22 19:01:21;;;;;;;5.30;2.40;;;;;;;9.61;48.36;99756.63;2128147;81;21033;-78
2021/10/22 19:04:24;;;;;;;6.40;2.30;;;;;;;9.64;48.47;99750.98;2117235;81;21023;-78
2021/10/22 19:07:27;;;;;;;10.93;2.20;;;;;;;9.66;48.60;99758.28;2116924;81;20985;-80
2021/10/22 19:10:30;;;;;;;7.87;2.15;;;;;;;9.69;48.82;99753.14;2141150;81;21593;-78
2021/10/22 19:13:32;;;;;;;6.97;2.33;;;;;;;9.69;48.84;99757.11;2127181;81;21033;-78
2021/10/22 19:16:34;;;;;;;6.92;2.33;;;;;;;9.67;49.11;99757.27;2104372;81;21047;-78
2021/10/22 19:19:37;;;;;;;7.90;2.90;;;;;;;9.64;49.25;99764.23;2131441;81;21027;-79
2021/10/22 19:22:40;;;;;;;7.35;2.10;;;;;;;9.60;49.54;99762.91;2135498;81;21044;-79
2021/10/22 19:25:42;;;;;;;6.75;2.33;;;;;;;9.60;49.98;99761.11;2145065;81;21466;-81
2021/10/22 19:28:47;;;;;;;6.97;2.12;;;;;;;9.57;50.04;99764.09;2150909;81;21752;-79
2021/10/22 19:31:48;;;;;;;8.48;1.95;;;;;;;9.55;50.42;99773.20;2146444;81;21067;-80
2021/10/22 19:34:51;;;;;;;4.92;1.65;;;;;;;9.54;50.45;99782.13;2120409;81;21022;-80
2021/10/22 19:37:52;;;;;;;5.58;1.77;;;;;;;9.50;50.69;99779.49;2120454;81;21069;-80
2021/10/22 19:40:56;;;;;;;9.98;1.90;;;;;;;9.52;51.03;99786.28;2151275;81;21058;-79
2021/10/22 19:43:57;;;;;;;7.40;2.50;;;;;;;9.50;50.89;99772.87;2138355;81;21055;-80
2021/10/22 19:46:59;;;;;;;5.65;2.10;;;;;;;9.47;51.32;99782.48;2129441;81;21578;-79
2021/10/22 19:50:11;;;;;;;5.12;1.80;;;;;;;9.44;51.49;99790.27;2136121;81;21015;-78
2021/10/22 19:53:14;;;;;;;11.73;1.85;;;;;;;9.45;51.90;99793.73;2148227;81;21092;-80
2021/10/22 19:56:18;;;;;;;6.15;2.00;;;;;;;9.47;52.28;99781.16;2124565;81;21097;-77
2021/10/22 19:59:20;;;;;;;6.30;1.85;;;;;;;9.52;52.34;99793.41;2126846;81;21022;-77
2021/10/22 20:02:22;;;;;;;8.40;1.55;;;;;;;9.54;52.29;99812.08;2140537;81;21032;-77
2021/10/22 20:05:25;;;;;;;6.58;1.92;;;;;;;9.55;52.59;99807.63;2137284;81;20996;-78
2021/10/22 20:08:26;;;;;;;8.08;2.30;;;;;;;9.54;52.62;99807.28;2132254;80;21504;-78
2021/10/22 20:11:30;;;;;;;8.35;2.10;;;;;;;9.52;52.71;99810.12;2103337;82;21115;-79
2021/10/22 20:14:33;;;;;;;6.95;1.98;;;;;;;9.53;53.02;99827.66;2128872;81;21523;-78
2021/10/22 20:17:36;;;;;;;8.28;1.92;;;;;;;9.53;53.91;99826.83;2141972;81;21092;-78
2021/10/22 20:20:38;;;;;;;18.05;2.52;;;;;;;9.45;54.59;99844.05;2136316;81;20995;-79
2021/10/22 20:23:43;;;;;;;4.22;1.75;;;;;;;9.35;54.07;99847.70;2144364;81;21099;-79
2021/10/22 20:26:45;;;;;;;3.92;1.65;;;;;;;9.33;54.95;99855.47;2128727;81;21037;-79
2021/10/22 20:29:47;;;;;;;7.70;2.02;;;;;;;9.27;54.68;99857.46;2126811;81;21099;-78
2021/10/22 20:32:49;;;;;;;3.95;1.70;;;;;;;9.24;54.98;99874.50;2138981;81;21531;-79
2021/10/22 20:35:52;;;;;;;3.95;2.00;;;;;;;9.19;56.46;99871.51;2143713;81;20966;-79
2021/10/22 20:38:54;;;;;;;9.63;2.20;;;;;;;9.04;57.14;99885.03;2133436;81;21074;-80
2021/10/22 20:41:56;;;;;;;6.20;2.10;;;;;;;8.84;60.12;99888.45;2123880;81;21501;-78
2021/10/22 20:44:58;;;;;;;8.15;1.50;;;;;;;8.56;60.23;99893.16;2132706;81;21135;-80
2021/10/22 20:48:06;;;;;;;3.22;1.55;;;;;;;8.34;60.49;99903.79;2139563;81;21734;-78
2021/10/22 20:57:48;;;;;;;6.43;2.13;;;;;;;7.87;64.00;99935.36;2135107;81;21042;-77
2021/10/22 21:00:50;;;;;;;7.05;1.55;;;;;;;7.74;65.17;99950.77;2120965;81;20991;-77
2021/10/22 21:03:52;;;;;;;4.78;1.17;;;;;;;7.53;66.90;99977.49;2145966;81;21004;-77
2021/10/22 21:06:53;;;;;;;2.45;1.05;;;;;;;7.28;68.05;99968.49;2156243;81;21462;-76